createdAt,value
2022-10-05T00:01:33.373Z,11.82
2022-10-05T00:04:15.355Z,8.38
2022-10-05T00:06:44.852Z,9.38
2022-10-05T00:09:21.611Z,9.43
2022-10-05T00:11:49.412Z,7.60
2022-10-05T00:14:22.345Z,7.15
2022-10-05T00:16:49.444Z,7.55
2022-10-05T00:19:26.380Z,8.98
2022-10-05T00:21:52.993Z,7.90
2022-10-05T00:24:20.541Z,6.88
2022-10-05T00:26:47.475Z,6.93
2022-10-05T00:29:22.530Z,7.20
2022-10-05T00:31:50.168Z,8.32
2022-10-05T00:34:17.843Z,7.75
2022-10-05T00:36:45.623Z,7.90
2022-10-05T00:39:12.792Z,6.85
2022-10-05T00:41:57.933Z,7.05
2022-10-05T00:44:33.718Z,10.43
2022-10-05T00:47:21.545Z,10.48
2022-10-05T00:50:14.594Z,10.30
2022-10-05T00:53:12.391Z,10.23
2022-10-05T00:55:57.366Z,11.55
2022-10-05T00:58:53.181Z,12.32
2022-10-05T01:01:50.999Z,13.27
2022-10-05T01:04:47.024Z,12.43
2022-10-05T01:07:23.603Z,11.57
2022-10-05T01:09:58.096Z,11.55
2022-10-05T01:12:42.887Z,10.90
2022-10-05T01:15:21.859Z,10.68
2022-10-05T01:17:48.398Z,11.55
2022-10-05T01:20:31.003Z,10.93
2022-10-05T01:23:16.369Z,10.80
2022-10-05T01:26:19.869Z,11.07
2022-10-05T01:28:49.423Z,12.13
2022-10-05T01:31:25.086Z,12.32
2022-10-05T01:33:57.803Z,12.18
2022-10-05T01:36:30.478Z,12.38
2022-10-05T01:39:11.675Z,10.43
2022-10-05T01:41:52.385Z,10.55
2022-10-05T01:44:33.319Z,10.38
2022-10-05T01:47:07.287Z,9.75
2022-10-05T01:49:33.859Z,9.18
2022-10-05T01:52:19.213Z,9.40
2022-10-05T01:55:31.253Z,9.25
2022-10-05T01:58:23.323Z,11.55
2022-10-05T02:01:00.558Z,9.93
2022-10-05T02:03:42.685Z,10.98
2022-10-05T02:06:35.171Z,9.98
2022-10-05T02:09:06.395Z,10.10
2022-10-05T02:11:34.245Z,9.93
2022-10-05T02:14:11.558Z,10.05
2022-10-05T02:16:47.636Z,9.77
2022-10-05T02:19:22.011Z,10.38
2022-10-05T02:21:54.548Z,8.80
2022-10-05T02:24:31.200Z,9.43
2022-10-05T02:26:59.088Z,10.07
2022-10-05T02:29:31.072Z,9.52
2022-10-05T02:32:03.036Z,9.63
2022-10-05T02:34:41.566Z,9.90
2022-10-05T02:37:32.640Z,9.48
2022-10-05T02:40:08.496Z,9.23
2022-10-05T02:42:46.188Z,9.70
2022-10-05T02:45:33.615Z,9.75
2022-10-05T02:48:07.999Z,8.48
2022-10-05T02:50:46.759Z,8.85
2022-10-05T02:53:22.248Z,8.95
2022-10-05T02:55:53.656Z,8.48
2022-10-05T02:58:24.925Z,8.40
2022-10-05T03:01:03.348Z,8.55
2022-10-05T03:03:41.897Z,9.10
2022-10-05T03:06:23.192Z,9.63
2022-10-05T03:09:04.121Z,9.38
2022-10-05T03:12:09.812Z,10.48
2022-10-05T03:15:02.654Z,10.13
2022-10-05T03:17:42.139Z,9.98
2022-10-05T03:20:08.727Z,11.95
2022-10-05T03:22:53.476Z,12.82
2022-10-05T03:25:35.166Z,11.77
2022-10-05T03:28:20.519Z,10.07
2022-10-05T03:30:59.142Z,10.85
2022-10-05T03:33:40.751Z,10.75
2022-10-05T03:37:06.038Z,10.20
2022-10-05T03:39:51.529Z,10.30
2022-10-05T03:42:33.201Z,12.43
2022-10-05T03:45:16.247Z,12.45
2022-10-05T03:47:49.139Z,10.43
2022-10-05T03:50:18.818Z,11.75
2022-10-05T03:52:56.037Z,12.15
2022-10-05T03:55:43.744Z,12.75
2022-10-05T03:58:25.979Z,12.27
2022-10-05T04:00:57.800Z,12.95
2022-10-05T04:03:24.758Z,12.35
2022-10-05T04:05:59.304Z,12.43
2022-10-05T04:08:38.244Z,15.43
2022-10-05T04:11:11.641Z,16.42
2022-10-05T04:13:54.801Z,25.80
2022-10-05T04:16:28.339Z,29.35
2022-10-05T04:19:02.578Z,34.00
2022-10-05T04:21:59.380Z,36.25
2022-10-05T04:24:47.414Z,40.40
2022-10-05T04:27:30.954Z,39.60
2022-10-05T04:30:05.253Z,36.45
2022-10-05T04:32:43.907Z,44.75
2022-10-05T04:35:34.806Z,39.50
2022-10-05T04:38:25.011Z,38.47
2022-10-05T04:41:20.698Z,46.45
2022-10-05T04:44:06.068Z,43.80
2022-10-05T04:47:18.191Z,41.88
2022-10-05T04:49:56.199Z,40.72
2022-10-05T04:52:48.239Z,41.78
2022-10-05T04:55:33.466Z,40.17
2022-10-05T04:58:10.750Z,43.53
2022-10-05T05:01:07.889Z,44.25
2022-10-05T05:04:08.139Z,38.72
2022-10-05T05:06:53.575Z,33.70
2022-10-05T05:09:39.753Z,32.45
2022-10-05T05:12:41.841Z,30.35
2022-10-05T05:15:26.974Z,29.20
2022-10-05T05:18:19.733Z,26.92
2022-10-05T05:21:17.220Z,26.85
2022-10-05T05:24:11.565Z,28.30
2022-10-05T05:26:57.059Z,26.33
2022-10-05T05:30:01.215Z,24.13
2022-10-05T05:32:58.605Z,22.52
2022-10-05T05:35:38.776Z,21.42
2022-10-05T05:38:23.612Z,23.02
2022-10-05T05:41:13.273Z,23.75
2022-10-05T05:43:48.753Z,23.42
2022-10-05T05:46:30.104Z,23.38
2022-10-05T05:49:39.759Z,24.30
2022-10-05T05:52:22.437Z,25.55
2022-10-05T05:54:58.317Z,24.70
2022-10-05T05:57:33.229Z,27.42
2022-10-05T06:00:26.447Z,27.08
2022-10-05T06:03:03.642Z,26.25
2022-10-05T06:05:40.700Z,24.48
2022-10-05T06:08:13.568Z,27.15
2022-10-05T06:10:46.956Z,25.60
2022-10-05T06:13:23.309Z,27.00
2022-10-05T06:15:57.813Z,27.83
2022-10-05T06:18:25.621Z,29.52
2022-10-05T06:20:56.050Z,30.27
2022-10-05T06:23:34.180Z,27.25
2022-10-05T06:26:15.934Z,25.83
2022-10-05T06:28:43.099Z,28.17
2022-10-05T06:31:29.748Z,29.80
2022-10-05T06:34:28.063Z,30.75
2022-10-05T06:37:05.845Z,28.90
2022-10-05T06:40:07.627Z,26.58
2022-10-05T06:42:37.075Z,22.85
2022-10-05T06:45:22.093Z,21.48
2022-10-05T06:48:04.312Z,19.45
2022-10-05T06:50:58.233Z,17.70
2022-10-05T06:53:44.544Z,17.95
2022-10-05T06:56:21.217Z,15.43
2022-10-05T06:59:16.722Z,14.63
2022-10-05T07:02:24.968Z,13.20
2022-10-05T07:05:12.641Z,13.02
2022-10-05T07:08:07.045Z,15.00
2022-10-05T07:10:43.811Z,11.48
2022-10-05T07:13:10.440Z,12.40
2022-10-05T07:16:12.418Z,11.05
2022-10-05T07:18:51.089Z,12.50
2022-10-05T07:21:39.516Z,11.63
2022-10-05T07:24:25.034Z,11.15
2022-10-05T07:27:14.880Z,11.65
2022-10-05T07:32:29.737Z,13.10
2022-10-05T07:34:59.344Z,12.18
2022-10-05T07:37:57.995Z,13.35
2022-10-05T07:40:29.372Z,13.00
2022-10-05T07:43:03.945Z,14.38
2022-10-05T07:45:44.702Z,21.58
2022-10-05T07:52:51.629Z,12.50
2022-10-05T07:55:22.042Z,9.77
2022-10-05T07:58:02.034Z,8.90
2022-10-05T08:00:46.441Z,10.50
2022-10-05T08:03:38.442Z,7.32
2022-10-05T08:06:10.745Z,6.13
2022-10-05T08:08:53.994Z,6.43
2022-10-05T08:11:55.394Z,5.65
2022-10-05T08:14:38.440Z,6.03
2022-10-05T08:17:21.695Z,5.97
2022-10-05T08:20:06.345Z,6.10
2022-10-05T08:22:47.126Z,5.05
2022-10-05T08:25:26.727Z,4.57
2022-10-05T08:28:03.524Z,5.10
2022-10-05T08:30:35.775Z,5.03
2022-10-05T08:33:14.855Z,4.82
2022-10-05T08:35:44.853Z,4.57
2022-10-05T08:38:23.568Z,4.25
2022-10-05T08:41:19.948Z,4.57
2022-10-05T08:44:05.284Z,4.60
2022-10-05T08:46:56.302Z,4.60
2022-10-05T08:49:42.098Z,4.70
2022-10-05T08:52:30.437Z,4.22
2022-10-05T08:55:36.801Z,3.90
2022-10-05T08:58:27.631Z,3.88
2022-10-05T09:01:22.046Z,4.22
2022-10-05T09:03:57.563Z,4.82
2022-10-05T09:06:29.469Z,3.80
2022-10-05T09:09:09.760Z,4.20
2022-10-05T09:11:46.115Z,4.15
2022-10-05T09:14:34.540Z,3.83
2022-10-05T09:17:25.934Z,3.45
2022-10-05T09:20:32.913Z,3.40
2022-10-05T09:23:35.461Z,3.55
2022-10-05T09:26:02.241Z,3.47
2022-10-05T09:29:02.999Z,3.75
2022-10-05T09:31:57.826Z,3.38
2022-10-05T09:34:47.189Z,3.40
2022-10-05T09:37:21.779Z,3.60
2022-10-05T09:39:57.798Z,3.65
2022-10-05T09:42:29.816Z,3.33
2022-10-05T09:45:21.383Z,3.70
2022-10-05T09:48:00.417Z,3.70
2022-10-05T09:50:52.531Z,5.97
2022-10-05T09:53:41.179Z,3.25
2022-10-05T09:56:26.267Z,16.20
2022-10-05T09:59:23.783Z,4.10
2022-10-05T10:02:19.929Z,3.95
2022-10-05T10:05:05.924Z,3.80
2022-10-05T10:07:44.682Z,2.50
2022-10-05T10:10:29.327Z,2.60
2022-10-05T10:12:58.544Z,3.10
2022-10-05T10:15:33.122Z,3.40
2022-10-05T10:18:24.659Z,3.30
2022-10-05T10:21:30.377Z,3.40
2022-10-05T10:24:27.448Z,3.30
2022-10-05T10:27:00.036Z,3.35
2022-10-05T10:29:54.793Z,3.35
2022-10-05T10:32:56.970Z,3.20
2022-10-05T10:35:50.165Z,2.80
2022-10-05T10:38:31.269Z,3.13
2022-10-05T10:41:22.647Z,3.53
2022-10-05T10:44:12.287Z,2.90
2022-10-05T10:49:33.943Z,2.60
2022-10-05T10:52:24.891Z,3.15
2022-10-05T10:54:52.839Z,2.80
2022-10-05T10:57:54.076Z,3.03
2022-10-05T11:00:30.933Z,2.53
2022-10-05T11:03:24.961Z,2.72
2022-10-05T11:05:51.576Z,2.30
2022-10-05T11:08:18.344Z,2.20
2022-10-05T11:11:03.795Z,3.13
2022-10-05T11:14:02.949Z,2.85
2022-10-05T11:17:07.556Z,2.67
2022-10-05T11:20:28.656Z,2.50
2022-10-05T11:23:18.488Z,3.10
2022-10-05T11:26:12.830Z,3.50
2022-10-05T11:29:07.001Z,4.22
2022-10-05T11:32:04.599Z,3.40
2022-10-05T11:34:53.193Z,3.38
2022-10-05T11:37:22.762Z,3.40
2022-10-05T11:40:34.053Z,2.72
2022-10-05T11:43:42.314Z,16.65
2022-10-05T11:46:36.285Z,4.15
2022-10-05T11:49:21.616Z,13.73
2022-10-05T11:52:23.280Z,5.45
2022-10-05T11:55:14.979Z,3.50
2022-10-05T11:57:58.395Z,3.33
2022-10-05T12:00:34.587Z,2.83
2022-10-05T12:03:30.468Z,2.90
2022-10-05T12:06:27.417Z,3.75
2022-10-05T12:09:12.177Z,2.78
2022-10-05T12:12:27.015Z,2.90
2022-10-05T12:15:12.041Z,2.65
2022-10-05T12:18:01.283Z,2.65
2022-10-05T12:20:36.658Z,3.05
2022-10-05T12:23:14.688Z,3.17
2022-10-05T12:26:11.161Z,3.65
2022-10-05T12:28:52.256Z,3.10
2022-10-05T12:31:51.288Z,13.02
2022-10-05T12:34:26.853Z,3.90
2022-10-05T12:37:05.311Z,2.95
2022-10-05T12:39:41.138Z,2.63
2022-10-05T12:42:39.412Z,2.88
2022-10-05T12:45:26.513Z,3.40
2022-10-05T12:48:27.126Z,3.47
2022-10-05T12:50:59.863Z,3.30
2022-10-05T12:53:29.341Z,3.22
2022-10-05T12:55:55.925Z,2.72
2022-10-05T12:58:41.144Z,3.13
2022-10-05T13:01:20.961Z,2.97
2022-10-05T13:04:18.529Z,2.50
2022-10-05T13:07:04.789Z,2.55
2022-10-05T13:09:34.372Z,2.50
2022-10-05T13:12:11.989Z,4.40
2022-10-05T13:14:58.361Z,2.72
2022-10-05T13:17:45.187Z,2.75
2022-10-05T13:20:24.100Z,2.60
2022-10-05T13:23:08.034Z,2.83
2022-10-05T13:25:51.705Z,2.60
2022-10-05T13:28:49.560Z,2.70
2022-10-05T13:31:23.882Z,2.72
2022-10-05T13:33:53.597Z,2.72
2022-10-05T13:39:03.542Z,3.25
2022-10-05T13:41:50.243Z,2.55
2022-10-05T13:44:38.247Z,2.33
2022-10-05T13:47:28.575Z,3.03
2022-10-05T13:50:23.417Z,4.05
2022-10-05T13:53:07.933Z,3.38
2022-10-05T13:56:03.479Z,3.03
2022-10-05T13:58:51.925Z,2.70
2022-10-05T14:01:41.707Z,2.67
2022-10-05T14:04:21.176Z,2.53
2022-10-05T14:06:49.282Z,2.60
2022-10-05T14:09:30.750Z,3.33
2022-10-05T14:12:03.281Z,3.00
2022-10-05T14:14:32.329Z,3.20
2022-10-05T14:17:05.612Z,3.28
2022-10-05T14:19:34.307Z,3.00
2022-10-05T14:22:03.322Z,3.75
2022-10-05T14:24:50.232Z,3.72
2022-10-05T14:27:19.964Z,3.53
2022-10-05T14:32:23.674Z,4.00
2022-10-05T14:35:13.040Z,4.53
2022-10-05T14:38:00.200Z,3.90
2022-10-05T14:40:36.061Z,4.90
2022-10-05T14:43:19.589Z,5.25
2022-10-05T14:46:23.243Z,4.40
2022-10-05T14:49:17.294Z,5.18
2022-10-05T14:51:44.163Z,4.78
2022-10-05T14:54:46.959Z,5.10
2022-10-05T14:57:39.296Z,4.05
2022-10-05T15:00:17.020Z,3.78
2022-10-05T15:03:27.358Z,3.50
2022-10-05T15:05:58.900Z,3.90
2022-10-05T15:08:49.555Z,4.22
2022-10-05T15:11:42.598Z,3.70
2022-10-05T15:14:20.371Z,3.70
2022-10-05T15:16:51.948Z,4.03
2022-10-05T15:20:00.141Z,4.07
2022-10-05T15:22:31.844Z,3.40
2022-10-05T15:25:10.818Z,4.05
2022-10-05T15:27:58.980Z,4.78
2022-10-05T15:30:25.897Z,5.00
2022-10-05T15:33:01.503Z,6.35
2022-10-05T15:35:31.145Z,6.40
2022-10-05T15:38:20.770Z,5.40
2022-10-05T15:43:19.068Z,4.93
2022-10-05T15:46:08.676Z,5.25
2022-10-05T15:51:45.458Z,4.75
2022-10-05T15:54:42.346Z,5.07
2022-10-05T15:57:23.679Z,5.65
2022-10-05T16:00:07.761Z,5.57
2022-10-05T16:02:41.935Z,13.93
2022-10-05T16:05:11.404Z,18.15
2022-10-05T16:08:06.353Z,16.20
2022-10-05T16:10:37.284Z,15.15
2022-10-05T16:13:16.388Z,11.95
2022-10-05T16:15:50.099Z,10.50
2022-10-05T16:18:22.911Z,10.30
2022-10-05T16:20:52.194Z,11.93
2022-10-05T16:23:33.707Z,12.70
2022-10-05T16:26:21.742Z,16.13
2022-10-05T16:28:58.247Z,28.58
2022-10-05T16:31:37.505Z,26.48
2022-10-05T16:34:36.605Z,23.95
2022-10-05T16:37:09.859Z,23.63
2022-10-05T16:40:00.244Z,24.65
2022-10-05T16:42:47.948Z,23.67
2022-10-05T16:45:27.924Z,29.65
2022-10-05T16:48:00.242Z,27.67
2022-10-05T16:50:43.102Z,27.17
2022-10-05T16:53:15.791Z,28.67
2022-10-05T16:55:51.843Z,30.27
2022-10-05T16:58:35.345Z,28.02
2022-10-05T17:01:27.032Z,35.40
2022-10-05T17:04:14.726Z,34.97
2022-10-05T17:06:56.656Z,32.92
2022-10-05T17:09:43.543Z,21.73
2022-10-05T17:12:20.698Z,24.35
2022-10-05T17:15:00.368Z,18.70
2022-10-05T17:17:38.424Z,14.18
2022-10-05T17:20:23.686Z,12.13
2022-10-05T17:23:02.164Z,12.35
2022-10-05T17:25:45.823Z,11.80
2022-10-05T17:28:18.715Z,12.00
2022-10-05T17:30:53.972Z,11.50
2022-10-05T17:33:27.735Z,11.70
2022-10-05T17:36:04.788Z,11.70
2022-10-05T17:38:31.468Z,12.90
2022-10-05T17:41:05.480Z,13.05
2022-10-05T17:43:33.888Z,14.23
2022-10-05T17:46:06.759Z,19.42
2022-10-05T17:48:36.771Z,18.98
2022-10-05T17:54:11.172Z,16.45
2022-10-05T17:56:54.319Z,15.23
2022-10-05T17:59:44.693Z,16.80
2022-10-05T18:02:38.487Z,33.92
2022-10-05T18:05:16.250Z,62.67
2022-10-05T18:07:48.192Z,61.35
2022-10-05T18:10:30.674Z,40.67
2022-10-05T18:13:00.353Z,35.50
2022-10-05T18:15:26.923Z,32.47
2022-10-05T18:17:59.612Z,32.35
2022-10-05T18:20:29.620Z,34.63
2022-10-05T18:23:09.566Z,29.58
2022-10-05T18:26:18.151Z,31.95
2022-10-05T18:28:56.280Z,38.63
2022-10-05T18:31:38.224Z,43.28
2022-10-05T18:34:30.828Z,45.58
2022-10-05T18:37:21.861Z,43.17
2022-10-05T18:39:58.276Z,48.15
2022-10-05T18:42:40.038Z,46.78
2022-10-05T18:45:19.144Z,47.28
2022-10-05T18:47:59.421Z,48.92
2022-10-05T18:50:29.564Z,49.63
2022-10-05T18:53:26.740Z,45.95
2022-10-05T18:56:12.420Z,46.28
2022-10-05T18:58:52.074Z,45.10
2022-10-05T19:01:44.160Z,43.42
2022-10-05T19:04:32.592Z,43.53
2022-10-05T19:07:08.415Z,43.63
2022-10-05T19:09:38.788Z,42.00
2022-10-05T19:12:31.169Z,41.20
2022-10-05T19:15:27.187Z,38.58
2022-10-05T19:18:12.388Z,30.15
2022-10-05T19:20:39.955Z,40.30
2022-10-05T19:23:18.701Z,33.10
2022-10-05T19:25:54.813Z,36.20
2022-10-05T19:28:31.346Z,32.10
2022-10-05T19:31:07.340Z,32.90
2022-10-05T19:34:13.463Z,29.13
2022-10-05T19:36:46.341Z,27.17
2022-10-05T19:39:21.233Z,25.63
2022-10-05T19:42:26.348Z,25.75
2022-10-05T19:45:12.008Z,23.38
2022-10-05T19:47:53.495Z,22.42
2022-10-05T19:50:26.572Z,22.33
2022-10-05T19:53:09.321Z,21.35
2022-10-05T19:55:41.567Z,20.88
2022-10-05T19:58:29.155Z,21.60
2022-10-05T20:01:01.375Z,20.17
2022-10-05T20:03:32.950Z,21.90
2022-10-05T20:06:10.550Z,20.40
2022-10-05T20:08:43.835Z,20.20
2022-10-05T20:11:27.264Z,18.75
2022-10-05T20:13:53.983Z,18.95
2022-10-05T20:16:47.829Z,18.70
2022-10-05T20:19:43.205Z,18.45
2022-10-05T20:22:33.508Z,18.67
2022-10-05T20:25:20.334Z,19.88
2022-10-05T20:27:56.821Z,19.58
2022-10-05T20:30:28.796Z,19.73
2022-10-05T20:32:58.292Z,18.10
2022-10-05T20:35:27.922Z,18.58
2022-10-05T20:37:59.465Z,17.55
2022-10-05T20:40:29.141Z,16.02
2022-10-05T20:42:57.020Z,16.60
2022-10-05T20:45:23.885Z,17.25
2022-10-05T20:47:51.699Z,16.45
2022-10-05T20:50:18.553Z,16.20
2022-10-05T20:52:45.271Z,15.57
2022-10-05T20:55:12.613Z,14.98
2022-10-05T20:57:42.228Z,15.70
2022-10-05T21:02:37.243Z,13.93
2022-10-05T21:05:04.716Z,14.07
2022-10-05T21:07:34.102Z,15.15
2022-10-05T21:10:06.726Z,14.38
2022-10-05T21:12:34.739Z,15.20
2022-10-05T21:15:04.673Z,14.18
2022-10-05T21:19:58.293Z,13.57
2022-10-05T21:22:25.109Z,14.95
2022-10-05T21:24:51.704Z,14.75
2022-10-05T21:27:18.404Z,13.18
2022-10-05T21:29:45.397Z,15.07
2022-10-05T21:32:12.130Z,13.13
2022-10-05T21:34:39.791Z,14.50
2022-10-05T21:37:07.105Z,13.10
2022-10-05T21:39:35.136Z,13.52
2022-10-05T21:42:01.863Z,14.05
2022-10-05T21:44:28.613Z,14.15
2022-10-05T21:46:56.036Z,13.90
2022-10-05T21:49:23.369Z,14.27
2022-10-05T21:51:50.309Z,13.80
2022-10-05T21:54:21.559Z,15.35
2022-10-05T21:56:54.723Z,15.38
2022-10-05T21:59:26.693Z,15.15
2022-10-05T22:01:53.886Z,14.30
2022-10-05T22:04:20.560Z,13.88
2022-10-05T22:06:48.317Z,13.05
2022-10-05T22:09:14.960Z,14.02
2022-10-05T22:11:41.619Z,14.05
2022-10-05T22:14:08.268Z,15.23
2022-10-05T22:16:38.230Z,16.58
2022-10-05T22:19:10.243Z,14.85
2022-10-05T22:21:41.519Z,15.18
2022-10-05T22:24:11.587Z,14.55
2022-10-05T22:26:40.189Z,14.70
2022-10-05T22:29:07.139Z,16.10
2022-10-05T22:31:34.055Z,14.70
2022-10-05T22:34:00.908Z,14.20
2022-10-05T22:36:27.541Z,14.25
2022-10-05T22:38:54.423Z,13.75
2022-10-05T22:41:21.284Z,14.60
2022-10-05T22:43:50.165Z,14.20
2022-10-05T22:46:17.107Z,15.60
2022-10-05T22:48:43.800Z,14.63
2022-10-05T22:51:10.471Z,15.23
2022-10-05T22:53:37.299Z,15.05
2022-10-05T22:56:12.630Z,14.77
2022-10-05T22:58:41.058Z,15.68
2022-10-05T23:01:14.181Z,16.02
2022-10-05T23:03:41.546Z,15.40
2022-10-05T23:06:14.116Z,15.32
2022-10-05T23:08:41.770Z,14.85
2022-10-05T23:11:16.798Z,14.75
2022-10-05T23:13:44.237Z,15.63
2022-10-05T23:16:16.693Z,13.88
2022-10-05T23:18:44.075Z,14.63
2022-10-05T23:21:11.635Z,15.18
2022-10-05T23:23:40.669Z,14.73
2022-10-05T23:26:09.322Z,13.87
2022-10-05T23:28:36.263Z,14.85
2022-10-05T23:31:06.215Z,14.60
2022-10-05T23:36:04.498Z,14.52
2022-10-05T23:38:31.835Z,14.98
2022-10-05T23:40:59.821Z,15.82
2022-10-05T23:43:27.501Z,15.48
2022-10-05T23:45:54.398Z,15.93
2022-10-05T23:48:21.576Z,16.05
2022-10-05T23:50:49.529Z,14.52
2022-10-05T23:53:17.138Z,15.18
2022-10-05T23:55:43.924Z,15.35
2022-10-05T23:58:11.052Z,14.10
